Time;durP1;ratioP1;P1;durP2;ratioP2;P2;SDS_P1;SDS_P2;PMS_P1;PMS_P2;Temp;Humidity;BMP_temperature;BMP_pressure;BME280_temperature;BME280_humidity;BME280_pressure;Samples;Min_cycle;Max_cycle;Signal;HPM_P1;HPM_P2
2022/07/27 00:01:57;;;;;;;6.00;1.40;;;17.50;99.90;;;;;;4377956;28;9999950;-78
2022/07/27 00:04:22;;;;;;;5.50;1.30;;;17.50;99.90;;;;;;5055078;28;20112;-78
2022/07/27 00:06:48;;;;;;;4.57;1.50;;;17.50;99.90;;;;;;5049539;28;20170;-78
2022/07/27 00:09:14;;;;;;;9.43;1.88;;;17.50;99.90;;;;;;5059210;28;20059;-78
2022/07/27 00:11:40;;;;;;;6.35;1.42;;;17.50;99.90;;;;;;5060056;28;20024;-78
2022/07/27 00:14:05;;;;;;;6.78;1.23;;;17.50;99.90;;;;;;5071217;28;20028;-78
2022/07/27 00:16:31;;;;;;;6.28;1.20;;;17.50;99.90;;;;;;5066942;28;20028;-78
2022/07/27 00:18:57;;;;;;;9.25;1.38;;;17.50;99.90;;;;;;5058164;28;20021;-78
2022/07/27 00:21:25;;;;;;;7.00;1.40;;;17.50;99.90;;;;;;5070922;28;20025;-78
2022/07/27 00:23:51;;;;;;;4.68;1.30;;;17.40;99.90;;;;;;5068375;28;20088;-78
2022/07/27 00:26:17;;;;;;;7.68;1.20;;;17.50;99.90;;;;;;5057025;28;20025;-78
2022/07/27 00:28:42;;;;;;;7.72;1.30;;;17.40;99.90;;;;;;5060012;28;20039;-78
2022/07/27 00:31:08;;;;;;;10.82;1.40;;;17.40;99.90;;;;;;5055550;28;20024;-78
2022/07/27 00:33:34;;;;;;;8.73;1.30;;;17.40;99.90;;;;;;5061780;28;20021;-78
2022/07/27 00:36:00;;;;;;;7.07;1.20;;;17.30;99.90;;;;;;5056114;28;20361;-78
2022/07/27 00:38:26;;;;;;;8.93;1.30;;;17.20;99.90;;;;;;5078575;28;20044;-78
2022/07/27 00:40:52;;;;;;;7.82;1.60;;;17.20;99.90;;;;;;5058317;28;20024;-78
2022/07/27 00:43:19;;;;;;;6.10;1.38;;;17.20;99.90;;;;;;5071125;28;20079;-78
2022/07/27 00:45:45;;;;;;;4.95;1.23;;;17.20;99.90;;;;;;5058658;28;20048;-77
2022/07/27 00:48:10;;;;;;;8.75;1.42;;;17.20;99.90;;;;;;5058903;28;20225;-77
2022/07/27 00:50:39;;;;;;;5.15;1.30;;;17.30;99.90;;;;;;5047934;28;20028;-78
2022/07/27 00:53:06;;;;;;;6.30;1.35;;;17.20;99.90;;;;;;5054642;28;20105;-78
2022/07/27 00:55:33;;;;;;;4.68;1.30;;;17.10;99.90;;;;;;5051386;28;20428;-77
2022/07/27 00:57:59;;;;;;;9.27;1.20;;;17.10;99.90;;;;;;5057046;28;20017;-77
2022/07/27 01:00:26;;;;;;;9.07;1.60;;;17.20;99.90;;;;;;5055178;28;20051;-77
2022/07/27 01:02:51;;;;;;;7.88;1.40;;;17.10;99.90;;;;;;5073846;28;20488;-78
2022/07/27 01:05:17;;;;;;;6.50;1.20;;;17.00;99.90;;;;;;5081094;28;20031;-77
2022/07/27 01:07:43;;;;;;;3.83;1.10;;;17.00;99.90;;;;;;5062919;28;20032;-77
2022/07/27 01:10:08;;;;;;;5.78;1.52;;;17.00;99.90;;;;;;5054055;28;20138;-77
2022/07/27 01:12:34;;;;;;;7.65;1.23;;;17.00;99.90;;;;;;5061549;28;20032;-77
2022/07/27 01:15:00;;;;;;;5.88;1.25;;;17.00;99.90;;;;;;5059035;28;20044;-77
2022/07/27 01:17:29;;;;;;;7.68;1.42;;;17.00;99.90;;;;;;5059565;28;20477;-78
2022/07/27 01:19:55;;;;;;;6.25;1.38;;;17.00;99.90;;;;;;5059513;28;20052;-77
2022/07/27 01:22:21;;;;;;;7.55;1.00;;;16.90;99.90;;;;;;5063645;28;20548;-78
2022/07/27 01:24:48;;;;;;;6.70;1.27;;;16.90;99.90;;;;;;5060287;28;20025;-78
2022/07/27 01:27:13;;;;;;;5.07;1.20;;;16.90;99.90;;;;;;5065325;28;20446;-78
2022/07/27 01:29:39;;;;;;;6.72;1.20;;;16.90;99.90;;;;;;5067009;28;20037;-78
2022/07/27 01:32:05;;;;;;;11.18;1.30;;;16.90;99.90;;;;;;5054711;28;20017;-77
2022/07/27 01:34:34;;;;;;;3.85;1.02;;;16.90;99.90;;;;;;5056799;28;20112;-78
2022/07/27 01:37:03;;;;;;;4.63;1.00;;;16.80;99.90;;;;;;5069145;28;20037;-78
2022/07/27 01:39:30;;;;;;;9.23;1.58;;;16.80;99.90;;;;;;5061765;28;20422;-78
2022/07/27 01:41:56;;;;;;;8.25;1.33;;;16.90;99.90;;;;;;5058632;28;20083;-78
2022/07/27 01:44:21;;;;;;;8.45;1.25;;;16.90;99.90;;;;;;5070822;28;20031;-78
2022/07/27 01:46:47;;;;;;;5.28;1.30;;;16.80;99.90;;;;;;5069599;28;20020;-78
2022/07/27 01:49:13;;;;;;;8.80;1.23;;;16.80;99.90;;;;;;5058995;28;20046;-78
2022/07/27 01:51:38;;;;;;;6.47;1.00;;;16.80;99.90;;;;;;5066697;28;20126;-77
2022/07/27 01:54:04;;;;;;;6.68;1.42;;;16.80;99.90;;;;;;5059213;28;20286;-77
2022/07/27 01:56:30;;;;;;;6.60;1.27;;;16.80;99.90;;;;;;5077846;28;20032;-77
2022/07/27 01:58:55;;;;;;;6.82;1.35;;;16.70;99.90;;;;;;5057051;28;20035;-77
2022/07/27 02:01:21;;;;;;;5.30;1.17;;;16.70;99.90;;;;;;5049624;28;20459;-78
2022/07/27 02:03:46;;;;;;;7.00;1.35;;;16.70;99.90;;;;;;5065508;28;20060;-77
2022/07/27 02:06:12;;;;;;;5.22;1.13;;;16.70;99.90;;;;;;5065328;28;20099;-77
2022/07/27 02:08:38;;;;;;;8.23;1.10;;;16.70;99.90;;;;;;5050994;28;20362;-77
2022/07/27 02:13:48;;;;;;;7.00;1.10;;;16.70;99.90;;;;;;5072342;28;20028;-77
2022/07/27 02:16:16;;;;;;;4.47;1.10;;;16.60;99.90;;;;;;5072284;28;20039;-78
2022/07/27 02:18:41;;;;;;;4.47;1.13;;;16.60;99.90;;;;;;5043252;28;20029;-77
2022/07/27 02:21:07;;;;;;;6.53;1.40;;;16.60;99.90;;;;;;5062273;28;20043;-77
2022/07/27 02:23:34;;;;;;;5.38;1.25;;;16.60;99.90;;;;;;5065280;28;20747;-77
2022/07/27 02:26:00;;;;;;;4.20;1.08;;;16.50;99.90;;;;;;5050333;28;20067;-77
2022/07/27 02:28:26;;;;;;;4.30;0.90;;;16.50;99.90;;;;;;5057414;28;20154;-77
2022/07/27 02:30:51;;;;;;;4.90;1.10;;;16.50;99.90;;;;;;5052525;28;20489;-77
2022/07/27 02:33:17;;;;;;;7.43;1.23;;;16.50;99.90;;;;;;5076118;28;20032;-77
2022/07/27 02:35:43;;;;;;;4.20;1.10;;;16.50;99.90;;;;;;5068821;28;20035;-77
2022/07/27 02:38:08;;;;;;;4.32;1.25;;;16.50;99.90;;;;;;5055666;28;20044;-77
2022/07/27 02:40:34;;;;;;;7.40;1.23;;;16.50;99.90;;;;;;5069643;28;20028;-77
2022/07/27 02:43:00;;;;;;;5.13;1.20;;;16.40;99.90;;;;;;5060484;28;20123;-77
2022/07/27 02:45:25;;;;;;;7.28;1.08;;;16.40;99.90;;;;;;5055789;28;20388;-77
2022/07/27 02:47:51;;;;;;;7.57;1.00;;;16.40;99.90;;;;;;5063810;28;20039;-77
2022/07/27 02:50:16;;;;;;;4.60;0.95;;;16.40;99.90;;;;;;5069140;28;20499;-77
2022/07/27 02:52:42;;;;;;;3.15;1.00;;;16.40;99.90;;;;;;5068667;28;20031;-77
2022/07/27 02:55:08;;;;;;;4.55;1.08;;;16.40;99.90;;;;;;5054739;28;20029;-77
2022/07/27 02:57:36;;;;;;;5.32;1.20;;;16.40;99.90;;;;;;5066561;28;20502;-78
2022/07/27 03:00:05;;;;;;;8.60;1.52;;;16.40;99.90;;;;;;5063297;28;20035;-77
2022/07/27 03:02:31;;;;;;;6.72;1.20;;;16.40;99.90;;;;;;5060976;28;20048;-78
2022/07/27 03:04:56;;;;;;;6.38;1.15;;;16.40;99.90;;;;;;5055358;28;20037;-77
2022/07/27 03:07:22;;;;;;;6.60;1.08;;;16.40;99.90;;;;;;5063842;28;20032;-77
2022/07/27 03:09:47;;;;;;;3.45;0.90;;;16.30;99.90;;;;;;5068687;28;20373;-78
2022/07/27 03:12:13;;;;;;;3.85;1.00;;;16.40;99.90;;;;;;5060560;28;20053;-78
2022/07/27 03:14:39;;;;;;;5.43;1.05;;;16.30;99.90;;;;;;5068324;28;20512;-78
2022/07/27 03:17:04;;;;;;;5.05;1.20;;;16.40;99.90;;;;;;5058702;28;20196;-77
2022/07/27 03:19:30;;;;;;;5.55;1.08;;;16.40;99.90;;;;;;5055932;28;20036;-78
2022/07/27 03:21:55;;;;;;;6.97;1.23;;;16.40;99.90;;;;;;5053671;28;20234;-77
2022/07/27 03:24:21;;;;;;;3.40;0.90;;;16.40;99.90;;;;;;5059322;28;20557;-77
2022/07/27 03:26:46;;;;;;;4.47;1.20;;;16.40;99.90;;;;;;5057406;28;20029;-77
2022/07/27 03:29:12;;;;;;;3.45;1.00;;;16.40;99.90;;;;;;5055339;28;20033;-77
2022/07/27 03:31:38;;;;;;;7.75;1.38;;;16.30;99.90;;;;;;5057446;28;20040;-77
2022/07/27 03:34:04;;;;;;;5.15;1.10;;;16.30;99.90;;;;;;5070241;28;20028;-77
2022/07/27 03:36:29;;;;;;;6.50;1.45;;;16.30;99.90;;;;;;5067743;28;20024;-76
2022/07/27 03:38:55;;;;;;;7.28;1.20;;;16.30;99.90;;;;;;5055627;28;20035;-77
2022/07/27 03:41:20;;;;;;;5.50;1.20;;;16.20;99.90;;;;;;5056720;28;20044;-77
2022/07/27 03:43:46;;;;;;;7.90;1.15;;;16.20;99.90;;;;;;5066085;28;20028;-78
2022/07/27 03:46:12;;;;;;;4.95;0.80;;;16.20;99.90;;;;;;5062561;28;20059;-77
2022/07/27 03:48:38;;;;;;;6.43;1.20;;;16.10;99.90;;;;;;5055457;28;20060;-77
2022/07/27 03:51:05;;;;;;;4.38;1.00;;;16.10;99.90;;;;;;5049098;28;20056;-78
2022/07/27 03:53:31;;;;;;;8.18;1.23;;;16.00;99.90;;;;;;5055578;28;20047;-77
2022/07/27 03:55:56;;;;;;;4.57;1.42;;;16.00;99.90;;;;;;5066128;28;20017;-78
2022/07/27 03:58:22;;;;;;;6.40;1.33;;;16.00;99.90;;;;;;5044693;28;20036;-77
2022/07/27 04:00:49;;;;;;;7.30;1.23;;;15.90;99.90;;;;;;5057538;28;20029;-77
2022/07/27 04:03:15;;;;;;;6.57;1.50;;;15.90;99.90;;;;;;5063091;28;20032;-77
2022/07/27 04:05:41;;;;;;;4.57;0.93;;;15.90;99.90;;;;;;5053752;28;20566;-78
2022/07/27 04:08:06;;;;;;;3.10;0.90;;;15.90;99.90;;;;;;5053354;28;20021;-77
2022/07/27 04:10:32;;;;;;;8.63;1.25;;;15.90;99.90;;;;;;5067365;28;20043;-77
2022/07/27 04:12:58;;;;;;;5.13;1.02;;;15.80;99.90;;;;;;5068674;28;20514;-78
2022/07/27 04:15:23;;;;;;;7.38;1.10;;;15.80;99.90;;;;;;5061955;28;20512;-77
2022/07/27 04:17:49;;;;;;;6.07;1.40;;;15.90;99.90;;;;;;5072188;28;20122;-77
2022/07/27 04:20:15;;;;;;;6.53;1.23;;;15.80;99.90;;;;;;5056056;28;20031;-78
2022/07/27 04:22:40;;;;;;;4.75;1.00;;;15.80;99.90;;;;;;5061816;28;20032;-77
2022/07/27 04:25:06;;;;;;;4.30;0.98;;;15.80;99.90;;;;;;5058906;28;20028;-77
2022/07/27 04:27:32;;;;;;;5.93;1.15;;;15.80;99.90;;;;;;5065771;28;20036;-77
2022/07/27 04:29:57;;;;;;;4.13;1.17;;;15.80;99.90;;;;;;5073235;28;20032;-77
2022/07/27 04:32:23;;;;;;;3.03;0.90;;;15.80;99.90;;;;;;5058952;28;20557;-77
2022/07/27 04:34:49;;;;;;;5.72;1.05;;;15.80;99.90;;;;;;5072353;28;20045;-77
2022/07/27 04:37:14;;;;;;;2.85;0.98;;;15.80;99.90;;;;;;5075941;28;20175;-77
2022/07/27 04:39:40;;;;;;;8.27;1.52;;;15.90;99.90;;;;;;5059996;28;20201;-77
2022/07/27 04:42:07;;;;;;;9.77;1.40;;;15.90;99.90;;;;;;5076160;28;20039;-77
2022/07/27 04:44:32;;;;;;;5.95;0.95;;;15.90;99.90;;;;;;5074649;28;20074;-77
2022/07/27 04:46:58;;;;;;;7.88;1.27;;;15.90;99.90;;;;;;5070326;28;20036;-77
2022/07/27 04:49:24;;;;;;;3.83;0.80;;;15.90;99.90;;;;;;5052247;28;20467;-77
2022/07/27 04:51:49;;;;;;;4.18;1.10;;;15.90;99.90;;;;;;5075882;28;20024;-77
2022/07/27 04:54:15;;;;;;;6.72;0.90;;;15.90;99.90;;;;;;5072396;28;20112;-77
2022/07/27 04:56:41;;;;;;;4.63;0.90;;;15.90;99.90;;;;;;5061257;28;20500;-77
2022/07/27 04:59:06;;;;;;;3.88;1.02;;;15.90;99.90;;;;;;5059361;28;20502;-77
2022/07/27 05:01:32;;;;;;;4.80;1.13;;;15.90;99.90;;;;;;5058563;28;20115;-77
2022/07/27 05:03:57;;;;;;;8.85;1.33;;;15.80;99.90;;;;;;5053118;28;20498;-77
2022/07/27 05:06:23;;;;;;;5.88;1.10;;;15.90;99.90;;;;;;5062727;28;20039;-78
2022/07/27 05:08:49;;;;;;;6.28;1.10;;;15.80;99.90;;;;;;5067964;28;20107;-77
2022/07/27 05:11:14;;;;;;;5.65;0.98;;;15.90;99.90;;;;;;5074134;28;20604;-77
2022/07/27 05:13:40;;;;;;;7.45;1.60;;;15.90;99.90;;;;;;5068383;28;20025;-77
2022/07/27 05:16:09;;;;;;;3.72;0.88;;;15.90;99.90;;;;;;5078394;28;20034;-77
2022/07/27 05:18:36;;;;;;;6.65;1.10;;;15.90;99.90;;;;;;5051008;28;20053;-77
2022/07/27 05:21:02;;;;;;;4.22;0.90;;;15.90;99.90;;;;;;5064687;28;20029;-78
2022/07/27 05:23:27;;;;;;;7.10;0.90;;;16.00;99.90;;;;;;5060282;28;20021;-77
2022/07/27 05:25:53;;;;;;;3.85;1.00;;;16.10;99.90;;;;;;5052665;28;20024;-77
2022/07/27 05:28:18;;;;;;;4.22;0.77;;;16.20;99.90;;;;;;5071284;28;20052;-77
2022/07/27 05:30:44;;;;;;;3.17;0.80;;;16.30;99.90;;;;;;5065385;28;20070;-78
2022/07/27 05:33:10;;;;;;;5.32;0.95;;;16.40;99.90;;;;;;5064610;28;20091;-78
2022/07/27 05:35:36;;;;;;;2.75;0.70;;;16.40;99.90;;;;;;5050639;28;20055;-77
2022/07/27 05:38:02;;;;;;;3.00;0.80;;;16.50;99.90;;;;;;5076882;28;20024;-77
2022/07/27 05:40:28;;;;;;;5.63;0.77;;;16.50;99.90;;;;;;5061643;28;20027;-82
2022/07/27 05:42:54;;;;;;;5.10;0.90;;;16.50;99.90;;;;;;5075573;28;20028;-78
2022/07/27 05:45:20;;;;;;;4.60;1.08;;;16.60;99.90;;;;;;5068409;28;20031;-78
2022/07/27 05:47:45;;;;;;;3.15;0.60;;;16.60;99.90;;;;;;5056737;28;20090;-79
2022/07/27 05:50:11;;;;;;;2.33;0.60;;;16.60;99.90;;;;;;5064130;28;20016;-79
2022/07/27 05:52:37;;;;;;;6.47;0.88;;;16.50;99.90;;;;;;5066222;28;21792;-77
2022/07/27 05:55:03;;;;;;;8.70;1.00;;;16.50;99.90;;;;;;5058615;28;20121;-77
2022/07/27 05:57:29;;;;;;;5.15;0.68;;;16.50;99.90;;;;;;5075063;28;20050;-77
2022/07/27 05:59:57;;;;;;;4.55;0.70;;;16.60;99.90;;;;;;5057852;28;20556;-77
2022/07/27 06:02:22;;;;;;;4.75;0.85;;;16.60;99.90;;;;;;5062733;28;20434;-78
2022/07/27 06:04:48;;;;;;;8.25;0.80;;;16.60;99.90;;;;;;5057776;28;20029;-82
2022/07/27 06:09:57;;;;;;;4.80;0.88;;;16.70;99.90;;;;;;5059259;28;20047;-77
2022/07/27 06:12:23;;;;;;;5.25;0.90;;;16.70;99.90;;;;;;5063433;28;20033;-77
2022/07/27 06:14:48;;;;;;;3.72;0.85;;;16.70;99.90;;;;;;5078486;28;20017;-77
2022/07/27 06:17:14;;;;;;;2.13;0.70;;;16.60;99.90;;;;;;5059499;28;20110;-77
2022/07/27 06:19:40;;;;;;;2.28;0.70;;;16.60;99.90;;;;;;5061422;28;20028;-77
2022/07/27 06:22:06;;;;;;;2.97;0.77;;;16.60;99.90;;;;;;5057894;28;20028;-77
2022/07/27 06:24:32;;;;;;;4.20;0.95;;;16.60;99.90;;;;;;5063572;28;20407;-77
2022/07/27 06:26:58;;;;;;;6.03;0.80;;;16.70;99.90;;;;;;5055697;28;20035;-77
2022/07/27 06:29:23;;;;;;;3.60;0.70;;;16.70;99.90;;;;;;5051437;28;20440;-77
2022/07/27 06:31:49;;;;;;;5.25;0.98;;;16.80;99.90;;;;;;5069966;28;20032;-77
2022/07/27 06:34:15;;;;;;;3.78;0.82;;;16.80;99.90;;;;;;5054447;28;20643;-77
2022/07/27 06:36:43;;;;;;;5.55;0.75;;;16.90;99.90;;;;;;5052636;28;20112;-77
2022/07/27 06:39:10;;;;;;;4.50;0.68;;;16.90;99.90;;;;;;5065403;28;20165;-77
2022/07/27 06:41:36;;;;;;;3.15;0.73;;;17.00;99.90;;;;;;5065877;28;20029;-77
2022/07/27 06:44:01;;;;;;;2.90;0.65;;;17.10;99.90;;;;;;5062353;28;20035;-77
2022/07/27 06:46:27;;;;;;;4.03;0.70;;;17.10;99.90;;;;;;5052494;28;20471;-77
2022/07/27 06:48:55;;;;;;;3.15;0.80;;;17.20;99.90;;;;;;5055266;28;20151;-77
2022/07/27 06:51:21;;;;;;;5.78;0.90;;;17.20;99.90;;;;;;5060287;28;20122;-78
2022/07/27 06:53:51;;;;;;;4.72;0.75;;;17.20;99.90;;;;;;5051091;28;20037;-77
2022/07/27 06:56:18;;;;;;;6.13;0.93;;;17.40;99.90;;;;;;5057002;28;20045;-77
2022/07/27 06:58:43;;;;;;;2.80;1.13;;;17.40;99.90;;;;;;5066352;28;20028;-77
2022/07/27 07:01:09;;;;;;;6.10;0.90;;;17.50;99.90;;;;;;5054347;28;20448;-77
2022/07/27 07:03:35;;;;;;;5.50;0.90;;;17.70;99.90;;;;;;5057657;28;20017;-77
2022/07/27 07:06:01;;;;;;;3.42;1.02;;;17.90;99.60;;;;;;5062764;28;20419;-77
2022/07/27 07:08:26;;;;;;;2.78;0.73;;;18.10;99.30;;;;;;5060316;28;20039;-76
2022/07/27 07:10:53;;;;;;;5.30;0.88;;;18.20;99.00;;;;;;5065524;28;20028;-76
2022/07/27 07:13:18;;;;;;;4.00;0.90;;;18.40;98.90;;;;;;5051383;28;20544;-77
2022/07/27 07:15:44;;;;;;;2.97;0.57;;;18.60;98.20;;;;;;5060282;28;20021;-76
2022/07/27 07:18:10;;;;;;;2.63;0.57;;;18.70;98.00;;;;;;5065928;28;20020;-77
2022/07/27 07:20:36;;;;;;;3.42;0.68;;;18.90;97.50;;;;;;5059842;28;20166;-77
2022/07/27 07:23:03;;;;;;;4.97;0.80;;;19.10;96.90;;;;;;5050175;28;20115;-76
2022/07/27 07:25:29;;;;;;;3.22;0.75;;;19.00;96.50;;;;;;5051818;28;20068;-77
2022/07/27 07:27:56;;;;;;;3.22;0.70;;;19.00;96.80;;;;;;5050975;28;20435;-77
2022/07/27 07:30:22;;;;;;;5.57;0.60;;;19.20;95.90;;;;;;5049624;28;20052;-76
2022/07/27 07:32:48;;;;;;;2.67;0.50;;;19.30;95.40;;;;;;5054991;28;20029;-77
2022/07/27 07:35:14;;;;;;;1.92;0.50;;;19.40;95.10;;;;;;5060731;28;20036;-77
2022/07/27 07:37:39;;;;;;;5.20;0.47;;;19.50;94.60;;;;;;5053750;28;20066;-77
2022/07/27 07:40:06;;;;;;;5.25;0.80;;;19.70;94.40;;;;;;5048647;28;20072;-78
2022/07/27 07:42:44;;;;;;;3.15;0.70;;;19.90;94.40;;;;;;5046464;28;20281;-78
2022/07/27 07:45:09;;;;;;;3.95;0.70;;;19.90;93.10;;;;;;5056073;28;20488;-77
2022/07/27 07:47:35;;;;;;;2.10;0.60;;;20.10;93.30;;;;;;5047454;28;20036;-77
2022/07/27 07:50:00;;;;;;;2.83;0.60;;;20.20;92.70;;;;;;5055361;28;20025;-78
2022/07/27 07:52:26;;;;;;;1.60;0.65;;;20.30;92.30;;;;;;5051547;28;20036;-78
2022/07/27 07:54:51;;;;;;;3.78;0.60;;;20.50;92.40;;;;;;5054301;28;20490;-78
2022/07/27 07:57:17;;;;;;;2.75;0.63;;;20.70;91.70;;;;;;5051855;28;20032;-78
2022/07/27 07:59:44;;;;;;;3.45;0.70;;;20.90;90.90;;;;;;5063255;28;20024;-77
2022/07/27 08:02:09;;;;;;;4.05;0.70;;;20.70;90.50;;;;;;5054676;28;20131;-77
2022/07/27 08:04:35;;;;;;;1.85;0.52;;;20.60;90.60;;;;;;5058163;28;20039;-73
2022/07/27 08:07:00;;;;;;;3.20;0.60;;;20.70;91.10;;;;;;5052387;28;20362;-73
2022/07/27 08:09:27;;;;;;;4.05;0.70;;;20.70;90.60;;;;;;5046762;28;20172;-73
2022/07/27 08:11:53;;;;;;;4.90;0.60;;;20.80;90.30;;;;;;5060623;28;20942;-73
2022/07/27 08:14:18;;;;;;;6.13;1.02;;;20.80;90.30;;;;;;5051897;28;20121;-72
2022/07/27 08:16:44;;;;;;;3.35;0.60;;;21.00;90.70;;;;;;5074860;28;20415;-72
2022/07/27 08:19:09;;;;;;;4.70;0.70;;;21.10;89.90;;;;;;5056709;28;20024;-72
2022/07/27 08:21:35;;;;;;;3.20;0.50;;;21.30;88.50;;;;;;5059617;28;20404;-72
2022/07/27 08:24:01;;;;;;;6.38;0.70;;;21.20;87.70;;;;;;5063317;28;20050;-72
2022/07/27 08:26:26;;;;;;;1.85;0.85;;;21.40;86.80;;;;;;5065682;28;20032;-72
2022/07/27 08:28:52;;;;;;;4.13;0.70;;;21.70;85.10;;;;;;5058907;28;20664;-72
2022/07/27 08:31:17;;;;;;;3.35;0.50;;;21.90;84.70;;;;;;5045221;28;20082;-72
2022/07/27 08:33:43;;;;;;;4.40;0.80;;;22.10;84.00;;;;;;5061342;28;20028;-72
2022/07/27 08:36:08;;;;;;;4.28;0.90;;;21.90;81.50;;;;;;5061947;28;20362;-72
2022/07/27 08:38:34;;;;;;;2.42;0.60;;;21.50;79.50;;;;;;5061525;28;20156;-72
2022/07/27 08:41:01;;;;;;;3.10;0.50;;;21.10;82.00;;;;;;5059649;28;20561;-72
2022/07/27 08:43:28;;;;;;;3.40;0.60;;;20.70;82.20;;;;;;5058841;28;20033;-76
2022/07/27 08:45:58;;;;;;;3.58;0.75;;;20.40;82.50;;;;;;5059850;28;20044;-76
2022/07/27 08:48:25;;;;;;;3.10;0.50;;;20.10;82.10;;;;;;5052177;28;20033;-74
2022/07/27 08:50:51;;;;;;;4.40;0.77;;;19.90;83.00;;;;;;5052578;28;20032;-76
2022/07/27 08:53:18;;;;;;;4.78;0.70;;;19.70;84.80;;;;;;5058627;28;20673;-74
2022/07/27 08:55:46;;;;;;;2.05;0.70;;;19.80;85.40;;;;;;5065776;28;20044;-76
2022/07/27 08:58:14;;;;;;;3.75;0.60;;;20.00;84.80;;;;;;5054778;28;20515;-78
2022/07/27 09:00:43;;;;;;;2.45;0.52;;;20.10;83.70;;;;;;5054717;28;20041;-75
2022/07/27 09:03:16;;;;;;;1.27;0.50;;;20.50;83.80;;;;;;5055425;28;20036;-74
2022/07/27 09:05:47;;;;;;;2.28;0.60;;;21.10;82.30;;;;;;5055060;28;20109;-74
2022/07/27 09:08:16;;;;;;;3.30;0.55;;;21.30;80.20;;;;;;5055763;28;20107;-75
2022/07/27 09:10:42;;;;;;;2.15;0.50;;;21.40;79.80;;;;;;5058106;28;20039;-75
2022/07/27 09:13:25;;;;;;;3.00;0.50;;;21.30;79.30;;;;;;5054255;28;20391;-74
2022/07/27 09:15:56;;;;;;;1.60;0.68;;;21.20;78.00;;;;;;5052935;28;20038;-74
2022/07/27 09:18:24;;;;;;;3.05;0.70;;;21.00;78.40;;;;;;5045968;28;20549;-74
2022/07/27 09:21:14;;;;;;;3.22;0.57;;;20.80;78.60;;;;;;5046414;28;20409;-73
2022/07/27 09:23:51;;;;;;;3.22;0.52;;;20.80;77.20;;;;;;5049333;28;20070;-72
2022/07/27 09:26:24;;;;;;;2.13;0.50;;;20.80;79.20;;;;;;5053317;28;20217;-74
2022/07/27 09:28:54;;;;;;;3.45;0.50;;;20.90;77.80;;;;;;5052394;28;20104;-75
2022/07/27 09:31:20;;;;;;;3.38;0.50;;;21.20;76.20;;;;;;5057774;28;20051;-72
2022/07/27 09:33:51;;;;;;;1.45;0.40;;;21.60;76.80;;;;;;5069657;28;20054;-74
2022/07/27 09:36:18;;;;;;;2.53;0.50;;;21.80;76.30;;;;;;5053622;28;20241;-73
2022/07/27 09:39:06;;;;;;;2.70;0.60;;;22.20;75.90;;;;;;5046203;28;20120;-71
2022/07/27 09:41:50;;;;;;;1.90;0.50;;;22.40;92.70;;;;;;5049486;28;20440;-73
2022/07/27 09:44:16;;;;;;;1.50;0.30;;;22.20;92.70;;;;;;5043569;28;20032;-74
2022/07/27 09:46:45;;;;;;;1.92;0.43;;;21.90;91.90;;;;;;5061985;28;20029;-72
2022/07/27 09:49:33;;;;;;;1.10;0.50;;;21.80;91.00;;;;;;5041800;28;20024;-74
2022/07/27 09:52:03;;;;;;;4.47;0.80;;;21.60;92.00;;;;;;5063237;28;20508;-74
2022/07/27 09:54:45;;;;;;;5.38;0.70;;;21.30;92.40;;;;;;5055008;28;20037;-75
2022/07/27 09:57:11;;;;;;;1.98;0.65;;;21.00;93.00;;;;;;5059061;28;20467;-76
2022/07/27 09:59:37;;;;;;;3.53;0.52;;;20.90;93.30;;;;;;5050485;28;20033;-75
2022/07/27 10:02:02;;;;;;;2.08;0.52;;;20.70;93.90;;;;;;5076140;28;20103;-76
2022/07/27 10:04:31;;;;;;;4.00;0.60;;;20.70;94.40;;;;;;5054007;28;20116;-74
2022/07/27 10:06:58;;;;;;;3.60;0.60;;;20.80;93.40;;;;;;5048322;28;20024;-75
2022/07/27 10:09:24;;;;;;;6.03;0.70;;;21.00;93.00;;;;;;5046155;28;20033;-75
2022/07/27 10:11:50;;;;;;;0.98;0.30;;;21.30;91.10;;;;;;5054140;28;20779;-75
2022/07/27 10:14:16;;;;;;;1.25;0.40;;;21.50;91.40;;;;;;5060455;28;20098;-73
2022/07/27 10:16:47;;;;;;;4.13;0.60;;;21.70;90.40;;;;;;5052322;28;20204;-75
2022/07/27 10:19:25;;;;;;;3.17;0.55;;;21.60;90.40;;;;;;5052425;28;20197;-76
2022/07/27 10:21:51;;;;;;;2.53;0.60;;;21.60;90.40;;;;;;5048192;28;20056;-75
2022/07/27 10:24:32;;;;;;;1.95;0.35;;;21.50;90.20;;;;;;5071336;28;20052;-76
2022/07/27 10:26:58;;;;;;;1.77;0.50;;;21.70;89.40;;;;;;5069126;28;20030;-75
2022/07/27 10:29:24;;;;;;;1.52;0.60;;;21.60;88.50;;;;;;5055870;28;21005;-74
2022/07/27 10:31:53;;;;;;;1.52;0.50;;;21.50;86.30;;;;;;5056510;28;20656;-74
2022/07/27 10:34:42;;;;;;;1.30;0.40;;;21.60;85.90;;;;;;5050436;28;20517;-75
2022/07/27 10:37:27;;;;;;;1.75;0.55;;;21.90;85.60;;;;;;5057895;28;20033;-72
2022/07/27 10:42:45;;;;;;;2.33;0.50;;;22.60;84.00;;;;;;5050552;28;20555;-72
2022/07/27 10:45:13;;;;;;;2.58;0.40;;;22.70;81.20;;;;;;5071104;28;20489;-73
2022/07/27 10:47:47;;;;;;;2.25;0.45;;;22.80;81.30;;;;;;5057119;28;20076;-74
2022/07/27 10:50:16;;;;;;;4.20;0.32;;;22.80;82.50;;;;;;5048838;28;20054;-72
2022/07/27 10:52:54;;;;;;;3.85;0.63;;;22.80;82.60;;;;;;5055339;28;20667;-75
2022/07/27 10:55:32;;;;;;;4.35;0.60;;;22.60;83.20;;;;;;5053187;28;20028;-73
2022/07/27 10:58:13;;;;;;;3.13;0.52;;;22.20;82.40;;;;;;5065684;28;20032;-73
2022/07/27 11:00:47;;;;;;;3.50;0.57;;;22.00;84.70;;;;;;5061833;28;20078;-73
2022/07/27 11:03:25;;;;;;;4.00;0.60;;;21.90;83.20;;;;;;5057370;28;20032;-73
2022/07/27 11:05:54;;;;;;;2.55;0.70;;;21.70;84.50;;;;;;5056472;28;20183;-74
2022/07/27 11:08:31;;;;;;;2.15;0.45;;;21.70;84.50;;;;;;5053752;28;20042;-74
2022/07/27 11:10:59;;;;;;;2.15;0.47;;;21.80;83.90;;;;;;5053917;28;20035;-75
2022/07/27 11:13:26;;;;;;;1.85;0.35;;;21.90;83.60;;;;;;5048029;28;20505;-74
2022/07/27 11:15:54;;;;;;;2.58;0.70;;;22.10;82.10;;;;;;5058267;28;20232;-74
2022/07/27 11:18:30;;;;;;;1.95;0.32;;;22.40;81.20;;;;;;5052816;28;20032;-75
2022/07/27 11:21:15;;;;;;;1.90;0.60;;;22.40;67.10;;;;;;5043595;28;20029;-75
2022/07/27 11:23:42;;;;;;;2.73;0.50;;;;;;;;;;4349764;28;10001064;-74
2022/07/27 11:26:09;;;;;;;2.22;0.40;;;22.30;83.10;;;;;;5046486;28;20346;-76
2022/07/27 11:28:35;;;;;;;1.38;0.40;;;22.30;83.50;;;;;;5045449;28;20029;-75
2022/07/27 11:31:03;;;;;;;2.40;0.38;;;22.30;83.00;;;;;;5064733;28;20081;-75
2022/07/27 11:33:29;;;;;;;0.88;0.40;;;22.40;83.10;;;;;;5071928;28;21525;-75
2022/07/27 11:35:59;;;;;;;2.67;0.60;;;22.40;83.30;;;;;;5069006;28;20033;-75
2022/07/27 11:38:25;;;;;;;1.17;0.40;;;22.50;81.80;;;;;;5059585;28;20225;-75
2022/07/27 11:40:53;;;;;;;2.58;0.40;;;22.40;81.30;;;;;;5066227;28;20636;-74
2022/07/27 11:43:38;;;;;;;2.33;0.40;;;22.40;82.00;;;;;;5070901;28;20032;-74
2022/07/27 11:46:10;;;;;;;0.95;0.40;;;22.20;64.10;;;;;;5058755;28;20047;-74
2022/07/27 11:48:36;;;;;;;1.63;0.70;;;22.20;66.10;;;;;;5065793;28;20044;-74
2022/07/27 11:51:01;;;;;;;3.08;0.50;;;22.20;66.70;;;;;;5071400;28;20816;-75
2022/07/27 11:53:27;;;;;;;1.90;0.50;;;22.10;66.50;;;;;;5067151;28;20626;-74
2022/07/27 11:55:53;;;;;;;8.85;0.70;;;22.20;65.50;;;;;;5062148;28;20036;-74
2022/07/27 11:58:19;;;;;;;3.53;0.45;;;22.20;65.30;;;;;;5051259;28;20025;-74
2022/07/27 12:00:45;;;;;;;3.55;0.60;;;22.30;66.20;;;;;;5060436;28;20382;-80
2022/07/27 12:03:22;;;;;;;1.17;0.70;;;22.40;65.70;;;;;;5064745;28;20029;-76
2022/07/27 12:05:55;;;;;;;3.08;0.50;;;22.50;64.90;;;;;;5054743;28;20037;-74
2022/07/27 12:08:22;;;;;;;2.38;0.47;;;22.70;64.40;;;;;;5051451;28;20021;-76
2022/07/27 12:11:01;;;;;;;1.58;0.50;;;22.90;62.70;;;;;;5054002;28;20121;-75
2022/07/27 12:13:34;;;;;;;1.50;0.50;;;23.30;62.80;;;;;;5060572;28;20062;-78
2022/07/27 12:15:59;;;;;;;;;;;23.50;61.60;;;;;;5053405;28;20021;-74
2022/07/27 12:18:25;;;;;;;3.03;0.50;;;;;;;;;;5053216;28;20576;-75
2022/07/27 12:20:51;;;;;;;1.67;0.30;;;23.80;60.40;;;;;;5059973;28;20035;-75
2022/07/27 12:23:17;;;;;;;0.93;0.40;;;23.80;61.40;;;;;;5058577;28;20070;-75
2022/07/27 12:25:43;;;;;;;1.33;0.40;;;23.80;60.30;;;;;;5062693;28;20028;-75
2022/07/27 12:28:16;;;;;;;1.70;0.50;;;23.80;60.20;;;;;;5063362;28;20041;-74
2022/07/27 12:30:50;;;;;;;2.15;0.50;;;23.80;60.90;;;;;;5058663;28;20044;-75
2022/07/27 12:33:26;;;;;;;1.60;0.40;;;;;;;;;;5054911;28;20029;-76
2022/07/27 12:35:52;;;;;;;2.03;0.30;;;;;;;;;;5059582;28;20017;-77
2022/07/27 12:38:19;;;;;;;2.13;0.45;;;;;;;;;;5062381;28;20744;-74
2022/07/27 12:40:47;;;;;;;0.82;0.40;;;;;;;;;;5062826;28;20044;-75
2022/07/27 12:43:15;;;;;;;2.33;0.43;;;;;;;;;;5070042;28;20050;-75
2022/07/27 12:45:41;;;;;;;1.92;0.40;;;;;;;;;;5068938;28;20028;-74
2022/07/27 12:48:18;;;;;;;1.48;0.50;;;;;;;;;;5064703;28;20024;-74
2022/07/27 12:50:46;;;;;;;1.90;0.50;;;;;;;;;;5067374;28;20028;-74
2022/07/27 12:53:12;;;;;;;2.53;0.60;;;;;;;;;;5061332;28;20052;-75
2022/07/27 12:55:40;;;;;;;3.08;0.50;;;;;;;;;;5057109;28;20607;-75
2022/07/27 12:58:09;;;;;;;1.77;0.50;;;;;;;;;;5060365;28;20027;-74
2022/07/27 13:00:36;;;;;;;3.55;0.55;;;;;;;;;;5068738;28;20051;-75
2022/07/27 13:03:03;;;;;;;1.95;0.60;;;;;;;;;;5073465;28;20032;-76